KCRE

Grand Strand Airport

North Myrtle Beach, South Carolina, USA
METAR KCRE 260253Z AUTO 00000KT 10SM OVC070 19/16 A3012 RMK AO1 SLP201 T01890156 53009
Observed Flight Rules
Feb-26 @ 02:53 UTC (31 minutes ago) Visual Flight Rules
Wind Visibility Clouds
Calm 10 miles
  • Overcast at 7,000' AGL
Temperatures Readings
Current 19°C / 66°F
Dewpoint 16°C / 61°F
Humidity 83%
Altimeter 30.12" Hg
Pressure 1020.1 hPa
Elevation 10
METAR KCRE 260253Z AUTO 00000KT 10SM OVC070 19/16 A3012 RMK AO1 SLP201 T01890156 53009
Observed Flight Rules
Feb-26 @ 02:53 UTC
(31 minutes ago)
VFR
Wind Visibility
Calm 10 miles
Clouds
  • Overcast at 7,000' AGL
Temperature Dewpoint
19°C / 66°F 16°C / 61°F
Humidity Altimeter Pressure
83% 30.12" Hg 1020.1 hPa